sensor_id;sensor_type;location;lat;lon;timestamp;temperature;humidity
15044;DHT22;7619;48.562;8.910;2022-10-24T00:02:24;15.70;99.90
15044;DHT22;7619;48.562;8.910;2022-10-24T00:04:53;15.70;1.00
15044;DHT22;7619;48.562;8.910;2022-10-24T00:07:24;15.60;1.00
15044;DHT22;7619;48.562;8.910;2022-10-24T00:09:55;15.50;99.90
15044;DHT22;7619;48.562;8.910;2022-10-24T00:12:27;15.40;1.00
15044;DHT22;7619;48.562;8.910;2022-10-24T00:14:56;15.50;1.00
15044;DHT22;7619;48.562;8.910;2022-10-24T00:17:25;15.50;99.90
15044;DHT22;7619;48.562;8.910;2022-10-24T00:19:54;15.40;1.00
15044;DHT22;7619;48.562;8.910;2022-10-24T00:22:25;15.40;1.00
15044;DHT22;7619;48.562;8.910;2022-10-24T00:24:54;15.20;99.90
15044;DHT22;7619;48.562;8.910;2022-10-24T00:27:23;15.10;1.00
15044;DHT22;7619;48.562;8.910;2022-10-24T00:29:52;14.90;1.00
15044;DHT22;7619;48.562;8.910;2022-10-24T00:32:21;14.80;1.00
15044;DHT22;7619;48.562;8.910;2022-10-24T00:34:50;14.80;82.70
15044;DHT22;7619;48.562;8.910;2022-10-24T00:37:19;14.80;1.00
15044;DHT22;7619;48.562;8.910;2022-10-24T00:39:48;14.70;1.00
15044;DHT22;7619;48.562;8.910;2022-10-24T00:42:17;14.60;1.00
15044;DHT22;7619;48.562;8.910;2022-10-24T00:44:47;14.50;99.90
15044;DHT22;7619;48.562;8.910;2022-10-24T00:50:00;14.70;99.90
15044;DHT22;7619;48.562;8.910;2022-10-24T00:52:32;14.50;1.00
15044;DHT22;7619;48.562;8.910;2022-10-24T00:55:01;14.30;1.00
15044;DHT22;7619;48.562;8.910;2022-10-24T00:57:33;14.20;99.90
15044;DHT22;7619;48.562;8.910;2022-10-24T01:00:07;14.30;99.90
15044;DHT22;7619;48.562;8.910;2022-10-24T01:02:36;14.30;99.90
15044;DHT22;7619;48.562;8.910;2022-10-24T01:05:07;14.30;99.90
15044;DHT22;7619;48.562;8.910;2022-10-24T01:07:43;14.40;99.90
15044;DHT22;7619;48.562;8.910;2022-10-24T01:10:26;14.60;99.90
15044;DHT22;7619;48.562;8.910;2022-10-24T01:13:02;14.70;99.90
15044;DHT22;7619;48.562;8.910;2022-10-24T01:18:12;14.80;1.00
15044;DHT22;7619;48.562;8.910;2022-10-24T01:21:01;14.70;1.00
15044;DHT22;7619;48.562;8.910;2022-10-24T01:23:54;14.70;1.00
15044;DHT22;7619;48.562;8.910;2022-10-24T01:26:49;14.50;99.90
15044;DHT22;7619;48.562;8.910;2022-10-24T01:29:26;14.50;99.90
15044;DHT22;7619;48.562;8.910;2022-10-24T01:31:57;14.40;99.90
15044;DHT22;7619;48.562;8.910;2022-10-24T01:37:08;14.30;99.90
15044;DHT22;7619;48.562;8.910;2022-10-24T01:42:19;13.90;99.90
15044;DHT22;7619;48.562;8.910;2022-10-24T01:44:52;13.90;99.90
15044;DHT22;7619;48.562;8.910;2022-10-24T01:47:25;13.80;99.90
15044;DHT22;7619;48.562;8.910;2022-10-24T01:49:57;13.80;99.90
15044;DHT22;7619;48.562;8.910;2022-10-24T01:52:29;13.80;99.90
15044;DHT22;7619;48.562;8.910;2022-10-24T01:54:59;13.80;99.90
15044;DHT22;7619;48.562;8.910;2022-10-24T01:57:29;13.90;99.90
15044;DHT22;7619;48.562;8.910;2022-10-24T01:59:58;13.90;99.90
15044;DHT22;7619;48.562;8.910;2022-10-24T02:02:29;13.90;99.90
15044;DHT22;7619;48.562;8.910;2022-10-24T02:05:01;13.90;99.90
15044;DHT22;7619;48.562;8.910;2022-10-24T02:07:32;14.00;99.90
15044;DHT22;7619;48.562;8.910;2022-10-24T02:10:04;13.90;99.90
15044;DHT22;7619;48.562;8.910;2022-10-24T02:12:34;13.70;99.90
15044;DHT22;7619;48.562;8.910;2022-10-24T02:15:09;13.80;99.90
15044;DHT22;7619;48.562;8.910;2022-10-24T02:17:38;13.80;99.90
15044;DHT22;7619;48.562;8.910;2022-10-24T02:20:10;13.80;99.90
15044;DHT22;7619;48.562;8.910;2022-10-24T02:22:43;13.80;99.90
15044;DHT22;7619;48.562;8.910;2022-10-24T02:25:15;13.80;99.90
15044;DHT22;7619;48.562;8.910;2022-10-24T02:27:47;13.90;99.90
15044;DHT22;7619;48.562;8.910;2022-10-24T02:30:19;14.00;99.90
15044;DHT22;7619;48.562;8.910;2022-10-24T02:32:51;14.10;99.90
15044;DHT22;7619;48.562;8.910;2022-10-24T02:38:02;14.20;99.90
15044;DHT22;7619;48.562;8.910;2022-10-24T02:40:32;14.20;99.90
15044;DHT22;7619;48.562;8.910;2022-10-24T02:43:02;14.20;99.90
15044;DHT22;7619;48.562;8.910;2022-10-24T02:45:32;14.30;99.90
15044;DHT22;7619;48.562;8.910;2022-10-24T02:48:04;14.50;99.90
15044;DHT22;7619;48.562;8.910;2022-10-24T02:50:35;14.80;99.90
15044;DHT22;7619;48.562;8.910;2022-10-24T02:53:06;15.10;99.90
15044;DHT22;7619;48.562;8.910;2022-10-24T02:55:36;15.10;99.90
15044;DHT22;7619;48.562;8.910;2022-10-24T02:58:05;15.20;99.90
15044;DHT22;7619;48.562;8.910;2022-10-24T03:00:34;15.30;99.90
15044;DHT22;7619;48.562;8.910;2022-10-24T03:03:03;15.10;99.90
15044;DHT22;7619;48.562;8.910;2022-10-24T03:05:31;14.80;99.90
15044;DHT22;7619;48.562;8.910;2022-10-24T03:08:00;14.60;99.90
15044;DHT22;7619;48.562;8.910;2022-10-24T03:10:30;14.40;99.90
15044;DHT22;7619;48.562;8.910;2022-10-24T03:12:59;14.70;99.90
15044;DHT22;7619;48.562;8.910;2022-10-24T03:15:28;14.80;99.90
15044;DHT22;7619;48.562;8.910;2022-10-24T03:17:57;14.90;99.90
15044;DHT22;7619;48.562;8.910;2022-10-24T03:20:26;14.80;99.90
15044;DHT22;7619;48.562;8.910;2022-10-24T03:22:55;14.80;99.90
15044;DHT22;7619;48.562;8.910;2022-10-24T03:25:24;14.70;99.90
15044;DHT22;7619;48.562;8.910;2022-10-24T03:27:52;14.70;99.90
15044;DHT22;7619;48.562;8.910;2022-10-24T03:30:21;14.80;99.90
15044;DHT22;7619;48.562;8.910;2022-10-24T03:32:59;14.80;99.90
15044;DHT22;7619;48.562;8.910;2022-10-24T03:35:39;14.90;99.90
15044;DHT22;7619;48.562;8.910;2022-10-24T03:38:14;14.80;99.90
15044;DHT22;7619;48.562;8.910;2022-10-24T03:40:57;14.70;99.90
15044;DHT22;7619;48.562;8.910;2022-10-24T03:43:35;14.60;99.90
15044;DHT22;7619;48.562;8.910;2022-10-24T03:49:53;14.60;99.90
15044;DHT22;7619;48.562;8.910;2022-10-24T03:52:22;14.60;99.90
15044;DHT22;7619;48.562;8.910;2022-10-24T03:54:51;14.70;99.90
15044;DHT22;7619;48.562;8.910;2022-10-24T03:57:19;14.80;99.90
15044;DHT22;7619;48.562;8.910;2022-10-24T03:59:48;14.80;99.90
15044;DHT22;7619;48.562;8.910;2022-10-24T04:02:17;14.80;99.90
15044;DHT22;7619;48.562;8.910;2022-10-24T04:04:46;14.80;99.90
15044;DHT22;7619;48.562;8.910;2022-10-24T04:07:15;14.80;99.90
15044;DHT22;7619;48.562;8.910;2022-10-24T04:12:19;14.80;99.90
15044;DHT22;7619;48.562;8.910;2022-10-24T04:14:48;14.80;99.90
15044;DHT22;7619;48.562;8.910;2022-10-24T04:17:17;14.80;99.90
15044;DHT22;7619;48.562;8.910;2022-10-24T04:19:46;14.80;99.90
15044;DHT22;7619;48.562;8.910;2022-10-24T04:22:15;15.00;99.90
15044;DHT22;7619;48.562;8.910;2022-10-24T04:24:44;15.30;99.90
15044;DHT22;7619;48.562;8.910;2022-10-24T04:27:12;15.30;99.90
15044;DHT22;7619;48.562;8.910;2022-10-24T04:29:41;15.50;99.90
15044;DHT22;7619;48.562;8.910;2022-10-24T04:32:10;15.50;99.90
15044;DHT22;7619;48.562;8.910;2022-10-24T04:34:39;15.40;99.90
15044;DHT22;7619;48.562;8.910;2022-10-24T04:37:08;15.40;99.90
15044;DHT22;7619;48.562;8.910;2022-10-24T04:42:14;15.10;99.90
15044;DHT22;7619;48.562;8.910;2022-10-24T04:44:42;15.10;99.90
15044;DHT22;7619;48.562;8.910;2022-10-24T04:47:11;15.20;99.90
15044;DHT22;7619;48.562;8.910;2022-10-24T04:49:40;15.30;99.90
15044;DHT22;7619;48.562;8.910;2022-10-24T04:52:09;15.30;99.90
15044;DHT22;7619;48.562;8.910;2022-10-24T04:54:38;15.40;99.90
15044;DHT22;7619;48.562;8.910;2022-10-24T04:57:06;15.80;99.90
15044;DHT22;7619;48.562;8.910;2022-10-24T04:59:35;16.00;99.90
15044;DHT22;7619;48.562;8.910;2022-10-24T05:02:04;16.00;99.90
15044;DHT22;7619;48.562;8.910;2022-10-24T05:04:33;16.10;99.90
15044;DHT22;7619;48.562;8.910;2022-10-24T05:07:02;16.10;99.90
15044;DHT22;7619;48.562;8.910;2022-10-24T05:09:31;16.10;99.90
15044;DHT22;7619;48.562;8.910;2022-10-24T05:12:00;16.00;99.90
15044;DHT22;7619;48.562;8.910;2022-10-24T05:14:29;16.00;99.90
15044;DHT22;7619;48.562;8.910;2022-10-24T05:16:58;16.00;99.90
15044;DHT22;7619;48.562;8.910;2022-10-24T05:19:27;16.00;99.90
15044;DHT22;7619;48.562;8.910;2022-10-24T05:21:56;15.80;99.90
15044;DHT22;7619;48.562;8.910;2022-10-24T05:24:24;15.80;99.90
15044;DHT22;7619;48.562;8.910;2022-10-24T05:26:53;15.60;99.90
15044;DHT22;7619;48.562;8.910;2022-10-24T05:29:22;15.60;99.90
15044;DHT22;7619;48.562;8.910;2022-10-24T05:31:52;15.70;99.90
15044;DHT22;7619;48.562;8.910;2022-10-24T05:34:20;15.60;99.90
15044;DHT22;7619;48.562;8.910;2022-10-24T05:36:49;15.60;99.90
15044;DHT22;7619;48.562;8.910;2022-10-24T05:39:18;15.60;99.90
15044;DHT22;7619;48.562;8.910;2022-10-24T05:41:47;15.60;99.90
15044;DHT22;7619;48.562;8.910;2022-10-24T05:44:16;15.50;99.90
15044;DHT22;7619;48.562;8.910;2022-10-24T05:46:45;15.40;99.90
15044;DHT22;7619;48.562;8.910;2022-10-24T05:49:14;15.40;99.90
15044;DHT22;7619;48.562;8.910;2022-10-24T05:51:42;15.50;99.90
15044;DHT22;7619;48.562;8.910;2022-10-24T05:54:11;15.40;99.90
15044;DHT22;7619;48.562;8.910;2022-10-24T05:56:40;15.40;99.90
15044;DHT22;7619;48.562;8.910;2022-10-24T05:59:09;15.20;99.90
15044;DHT22;7619;48.562;8.910;2022-10-24T06:01:38;15.00;99.90
15044;DHT22;7619;48.562;8.910;2022-10-24T06:04:07;14.90;99.90
15044;DHT22;7619;48.562;8.910;2022-10-24T06:06:38;14.80;99.90
15044;DHT22;7619;48.562;8.910;2022-10-24T06:09:07;14.70;99.90
15044;DHT22;7619;48.562;8.910;2022-10-24T06:11:36;14.70;99.90
15044;DHT22;7619;48.562;8.910;2022-10-24T06:14:05;14.50;99.90
15044;DHT22;7619;48.562;8.910;2022-10-24T06:16:34;14.50;99.90
15044;DHT22;7619;48.562;8.910;2022-10-24T06:19:04;14.50;99.90
15044;DHT22;7619;48.562;8.910;2022-10-24T06:21:32;14.50;99.90
15044;DHT22;7619;48.562;8.910;2022-10-24T06:24:01;14.40;99.90
15044;DHT22;7619;48.562;8.910;2022-10-24T06:26:30;14.40;99.90
15044;DHT22;7619;48.562;8.910;2022-10-24T06:28:59;14.40;99.90
15044;DHT22;7619;48.562;8.910;2022-10-24T06:31:28;14.40;99.90
15044;DHT22;7619;48.562;8.910;2022-10-24T06:33:57;14.40;99.90
15044;DHT22;7619;48.562;8.910;2022-10-24T06:36:25;14.40;99.90
15044;DHT22;7619;48.562;8.910;2022-10-24T06:38:54;14.40;99.90
15044;DHT22;7619;48.562;8.910;2022-10-24T06:41:24;14.30;99.90
15044;DHT22;7619;48.562;8.910;2022-10-24T06:43:53;14.30;99.90
15044;DHT22;7619;48.562;8.910;2022-10-24T06:46:23;14.40;99.90
15044;DHT22;7619;48.562;8.910;2022-10-24T06:48:53;14.40;99.90
15044;DHT22;7619;48.562;8.910;2022-10-24T06:51:23;14.30;99.90
15044;DHT22;7619;48.562;8.910;2022-10-24T06:53:52;14.30;99.90
15044;DHT22;7619;48.562;8.910;2022-10-24T06:58:56;14.30;99.90
15044;DHT22;7619;48.562;8.910;2022-10-24T07:01:26;14.30;99.90
15044;DHT22;7619;48.562;8.910;2022-10-24T07:03:57;14.30;99.90
15044;DHT22;7619;48.562;8.910;2022-10-24T07:06:28;14.40;99.90
15044;DHT22;7619;48.562;8.910;2022-10-24T07:08:58;14.40;99.90
15044;DHT22;7619;48.562;8.910;2022-10-24T07:11:28;14.40;99.90
15044;DHT22;7619;48.562;8.910;2022-10-24T07:13:57;14.40;99.90
15044;DHT22;7619;48.562;8.910;2022-10-24T07:16:26;14.40;99.90
15044;DHT22;7619;48.562;8.910;2022-10-24T07:18:55;14.40;99.90
15044;DHT22;7619;48.562;8.910;2022-10-24T07:21:26;14.40;99.90
15044;DHT22;7619;48.562;8.910;2022-10-24T07:23:55;14.40;99.90
15044;DHT22;7619;48.562;8.910;2022-10-24T07:26:26;14.40;99.90
15044;DHT22;7619;48.562;8.910;2022-10-24T07:28:57;14.50;99.90
15044;DHT22;7619;48.562;8.910;2022-10-24T07:31:28;14.40;99.90
15044;DHT22;7619;48.562;8.910;2022-10-24T07:34:00;14.40;99.90
15044;DHT22;7619;48.562;8.910;2022-10-24T07:36:29;14.40;99.90
15044;DHT22;7619;48.562;8.910;2022-10-24T07:38:59;14.40;99.90
15044;DHT22;7619;48.562;8.910;2022-10-24T07:44:06;15.10;99.90
15044;DHT22;7619;48.562;8.910;2022-10-24T07:46:36;15.10;99.90
15044;DHT22;7619;48.562;8.910;2022-10-24T07:49:05;15.00;99.90
15044;DHT22;7619;48.562;8.910;2022-10-24T07:51:41;14.80;99.90
15044;DHT22;7619;48.562;8.910;2022-10-24T07:54:09;14.70;99.90
15044;DHT22;7619;48.562;8.910;2022-10-24T07:56:38;14.70;99.90
15044;DHT22;7619;48.562;8.910;2022-10-24T07:59:07;14.60;99.90
15044;DHT22;7619;48.562;8.910;2022-10-24T08:01:36;14.40;99.90
15044;DHT22;7619;48.562;8.910;2022-10-24T08:04:05;14.40;99.90
15044;DHT22;7619;48.562;8.910;2022-10-24T08:06:34;14.30;99.90
15044;DHT22;7619;48.562;8.910;2022-10-24T08:09:03;14.30;99.90
15044;DHT22;7619;48.562;8.910;2022-10-24T08:11:32;14.30;99.90
15044;DHT22;7619;48.562;8.910;2022-10-24T08:14:01;14.30;99.90
15044;DHT22;7619;48.562;8.910;2022-10-24T08:16:30;14.40;99.90
15044;DHT22;7619;48.562;8.910;2022-10-24T08:18:59;14.50;99.90
15044;DHT22;7619;48.562;8.910;2022-10-24T08:21:27;14.50;99.90
15044;DHT22;7619;48.562;8.910;2022-10-24T08:23:57;14.70;99.90
15044;DHT22;7619;48.562;8.910;2022-10-24T08:26:26;14.80;99.90
15044;DHT22;7619;48.562;8.910;2022-10-24T08:28:55;14.90;99.90
15044;DHT22;7619;48.562;8.910;2022-10-24T08:31:25;15.00;99.90
15044;DHT22;7619;48.562;8.910;2022-10-24T08:33:55;15.00;99.90
15044;DHT22;7619;48.562;8.910;2022-10-24T08:36:26;15.10;99.90
15044;DHT22;7619;48.562;8.910;2022-10-24T08:38:57;15.10;99.90
15044;DHT22;7619;48.562;8.910;2022-10-24T08:41:30;15.20;99.90
15044;DHT22;7619;48.562;8.910;2022-10-24T08:44:00;15.20;99.90
15044;DHT22;7619;48.562;8.910;2022-10-24T08:46:39;15.20;99.90
15044;DHT22;7619;48.562;8.910;2022-10-24T08:49:16;15.10;99.90
15044;DHT22;7619;48.562;8.910;2022-10-24T08:51:50;15.10;99.90
15044;DHT22;7619;48.562;8.910;2022-10-24T08:54:20;15.10;99.90
15044;DHT22;7619;48.562;8.910;2022-10-24T08:56:51;15.10;99.90
15044;DHT22;7619;48.562;8.910;2022-10-24T08:59:22;15.10;99.90
15044;DHT22;7619;48.562;8.910;2022-10-24T09:01:56;15.10;99.90
15044;DHT22;7619;48.562;8.910;2022-10-24T09:04:28;15.10;99.90
15044;DHT22;7619;48.562;8.910;2022-10-24T09:06:57;15.10;99.90
15044;DHT22;7619;48.562;8.910;2022-10-24T09:09:28;15.10;99.90
15044;DHT22;7619;48.562;8.910;2022-10-24T09:12:00;15.10;99.90
15044;DHT22;7619;48.562;8.910;2022-10-24T09:14:32;15.10;99.90
15044;DHT22;7619;48.562;8.910;2022-10-24T09:17:09;15.10;99.90
15044;DHT22;7619;48.562;8.910;2022-10-24T09:19:36;15.10;99.90
15044;DHT22;7619;48.562;8.910;2022-10-24T09:22:06;15.00;99.90
15044;DHT22;7619;48.562;8.910;2022-10-24T09:24:40;15.00;99.90
15044;DHT22;7619;48.562;8.910;2022-10-24T09:27:14;15.00;99.90
15044;DHT22;7619;48.562;8.910;2022-10-24T09:29:43;14.90;99.90
15044;DHT22;7619;48.562;8.910;2022-10-24T09:32:18;15.00;99.90
15044;DHT22;7619;48.562;8.910;2022-10-24T09:34:48;15.00;99.90
15044;DHT22;7619;48.562;8.910;2022-10-24T09:37:31;15.00;99.90
15044;DHT22;7619;48.562;8.910;2022-10-24T09:42:57;19.10;99.90
15044;DHT22;7619;48.562;8.910;2022-10-24T09:45:38;14.90;99.90
15044;DHT22;7619;48.562;8.910;2022-10-24T09:48:17;14.90;99.90
15044;DHT22;7619;48.562;8.910;2022-10-24T09:50:48;15.00;99.90
15044;DHT22;7619;48.562;8.910;2022-10-24T09:53:26;15.00;99.90
15044;DHT22;7619;48.562;8.910;2022-10-24T09:55:58;15.00;99.90
15044;DHT22;7619;48.562;8.910;2022-10-24T09:58:29;15.10;99.90
15044;DHT22;7619;48.562;8.910;2022-10-24T10:01:04;15.20;99.90
15044;DHT22;7619;48.562;8.910;2022-10-24T10:03:34;15.40;99.90
15044;DHT22;7619;48.562;8.910;2022-10-24T10:06:12;15.40;99.90
15044;DHT22;7619;48.562;8.910;2022-10-24T10:11:14;15.40;99.90
15044;DHT22;7619;48.562;8.910;2022-10-24T10:13:45;15.40;99.90
15044;DHT22;7619;48.562;8.910;2022-10-24T10:19:04;15.40;99.90
15044;DHT22;7619;48.562;8.910;2022-10-24T10:21:55;15.50;99.90
15044;DHT22;7619;48.562;8.910;2022-10-24T10:24:27;15.50;99.90
15044;DHT22;7619;48.562;8.910;2022-10-24T10:26:56;15.60;99.90
15044;DHT22;7619;48.562;8.910;2022-10-24T10:29:25;15.60;99.90
15044;DHT22;7619;48.562;8.910;2022-10-24T10:31:57;15.60;99.90
15044;DHT22;7619;48.562;8.910;2022-10-24T10:34:29;15.60;99.90
15044;DHT22;7619;48.562;8.910;2022-10-24T10:40:18;15.70;99.90
15044;DHT22;7619;48.562;8.910;2022-10-24T10:42:55;15.80;99.90
15044;DHT22;7619;48.562;8.910;2022-10-24T10:45:33;15.60;99.90
15044;DHT22;7619;48.562;8.910;2022-10-24T10:48:09;15.60;99.90
15044;DHT22;7619;48.562;8.910;2022-10-24T10:50:40;15.60;99.90
15044;DHT22;7619;48.562;8.910;2022-10-24T10:53:24;15.60;99.90
15044;DHT22;7619;48.562;8.910;2022-10-24T10:55:51;15.50;99.90
15044;DHT22;7619;48.562;8.910;2022-10-24T10:58:26;15.60;99.90
15044;DHT22;7619;48.562;8.910;2022-10-24T11:00:59;15.60;99.90
15044;DHT22;7619;48.562;8.910;2022-10-24T11:03:34;15.60;99.90
15044;DHT22;7619;48.562;8.910;2022-10-24T11:06:11;15.60;99.90
15044;DHT22;7619;48.562;8.910;2022-10-24T11:08:52;15.60;99.90
15044;DHT22;7619;48.562;8.910;2022-10-24T11:14:11;15.60;99.90
15044;DHT22;7619;48.562;8.910;2022-10-24T11:19:17;15.70;99.90
15044;DHT22;7619;48.562;8.910;2022-10-24T11:21:42;15.70;99.90
15044;DHT22;7619;48.562;8.910;2022-10-24T11:24:14;15.70;99.90
15044;DHT22;7619;48.562;8.910;2022-10-24T11:26:46;15.70;99.90
15044;DHT22;7619;48.562;8.910;2022-10-24T11:31:56;15.70;99.90
15044;DHT22;7619;48.562;8.910;2022-10-24T11:34:29;15.80;99.90
15044;DHT22;7619;48.562;8.910;2022-10-24T11:37:02;15.80;99.90
15044;DHT22;7619;48.562;8.910;2022-10-24T11:42:13;15.90;99.90
15044;DHT22;7619;48.562;8.910;2022-10-24T11:44:46;15.90;99.90
15044;DHT22;7619;48.562;8.910;2022-10-24T11:47:35;15.90;99.90
15044;DHT22;7619;48.562;8.910;2022-10-24T11:52:37;15.90;99.90
15044;DHT22;7619;48.562;8.910;2022-10-24T11:55:12;16.10;99.90
15044;DHT22;7619;48.562;8.910;2022-10-24T11:57:43;16.10;99.90
15044;DHT22;7619;48.562;8.910;2022-10-24T12:00:19;16.10;99.90
15044;DHT22;7619;48.562;8.910;2022-10-24T12:06:28;16.20;99.90
15044;DHT22;7619;48.562;8.910;2022-10-24T12:12:08;16.30;99.90
15044;DHT22;7619;48.562;8.910;2022-10-24T12:14:46;16.30;99.90
15044;DHT22;7619;48.562;8.910;2022-10-24T12:20:10;16.20;99.90
15044;DHT22;7619;48.562;8.910;2022-10-24T12:22:41;16.40;99.90
15044;DHT22;7619;48.562;8.910;2022-10-24T12:27:55;12.20;99.90
15044;DHT22;7619;48.562;8.910;2022-10-24T12:33:11;16.30;99.90
15044;DHT22;7619;48.562;8.910;2022-10-24T12:35:49;16.20;99.90
15044;DHT22;7619;48.562;8.910;2022-10-24T12:41:40;16.30;99.90
15044;DHT22;7619;48.562;8.910;2022-10-24T12:44:38;16.30;99.90
15044;DHT22;7619;48.562;8.910;2022-10-24T12:47:32;16.30;99.90
15044;DHT22;7619;48.562;8.910;2022-10-24T12:53:17;16.40;99.90
15044;DHT22;7619;48.562;8.910;2022-10-24T12:56:09;16.40;99.90
15044;DHT22;7619;48.562;8.910;2022-10-24T12:58:39;16.50;99.90
15044;DHT22;7619;48.562;8.910;2022-10-24T13:01:21;16.40;99.90
15044;DHT22;7619;48.562;8.910;2022-10-24T13:03:54;16.40;99.90
15044;DHT22;7619;48.562;8.910;2022-10-24T13:09:11;16.40;99.90
15044;DHT22;7619;48.562;8.910;2022-10-24T13:11:48;16.50;99.90
15044;DHT22;7619;48.562;8.910;2022-10-24T13:20:14;16.60;99.90
15044;DHT22;7619;48.562;8.910;2022-10-24T13:22:44;16.70;99.90
15044;DHT22;7619;48.562;8.910;2022-10-24T13:25:26;16.70;99.90
15044;DHT22;7619;48.562;8.910;2022-10-24T13:28:35;16.80;99.90
15044;DHT22;7619;48.562;8.910;2022-10-24T13:31:41;16.80;99.90
15044;DHT22;7619;48.562;8.910;2022-10-24T13:34:40;16.70;99.90
15044;DHT22;7619;48.562;8.910;2022-10-24T13:39:45;16.70;99.90
15044;DHT22;7619;48.562;8.910;2022-10-24T13:42:25;16.60;99.90
15044;DHT22;7619;48.562;8.910;2022-10-24T13:44:59;16.60;99.90
15044;DHT22;7619;48.562;8.910;2022-10-24T13:47:32;16.60;99.90
15044;DHT22;7619;48.562;8.910;2022-10-24T13:50:05;16.60;99.90
15044;DHT22;7619;48.562;8.910;2022-10-24T13:52:38;16.60;99.90
15044;DHT22;7619;48.562;8.910;2022-10-24T13:55:21;16.60;99.90
15044;DHT22;7619;48.562;8.910;2022-10-24T13:57:52;16.50;99.90
15044;DHT22;7619;48.562;8.910;2022-10-24T14:00:24;16.50;99.90
15044;DHT22;7619;48.562;8.910;2022-10-24T14:02:54;16.50;99.90
15044;DHT22;7619;48.562;8.910;2022-10-24T14:05:32;16.60;99.90
15044;DHT22;7619;48.562;8.910;2022-10-24T14:10:38;16.60;99.90
15044;DHT22;7619;48.562;8.910;2022-10-24T14:13:11;16.60;99.90
15044;DHT22;7619;48.562;8.910;2022-10-24T14:15:45;16.50;99.90
15044;DHT22;7619;48.562;8.910;2022-10-24T14:18:14;16.50;99.90
15044;DHT22;7619;48.562;8.910;2022-10-24T14:20:46;16.60;99.90
15044;DHT22;7619;48.562;8.910;2022-10-24T14:23:24;16.50;99.90
15044;DHT22;7619;48.562;8.910;2022-10-24T14:25:56;16.60;99.90
15044;DHT22;7619;48.562;8.910;2022-10-24T14:28:28;16.70;99.90
15044;DHT22;7619;48.562;8.910;2022-10-24T14:33:41;16.90;99.90
15044;DHT22;7619;48.562;8.910;2022-10-24T14:36:10;17.20;99.90
15044;DHT22;7619;48.562;8.910;2022-10-24T14:38:42;17.50;1.00
15044;DHT22;7619;48.562;8.910;2022-10-24T14:41:11;17.80;1.00
15044;DHT22;7619;48.562;8.910;2022-10-24T14:43:41;17.90;1.00
15044;DHT22;7619;48.562;8.910;2022-10-24T14:49:27;18.20;1.00
15044;DHT22;7619;48.562;8.910;2022-10-24T14:54:37;18.40;99.90
15044;DHT22;7619;48.562;8.910;2022-10-24T14:57:16;18.00;1.00
15044;DHT22;7619;48.562;8.910;2022-10-24T15:02:25;17.80;1.00
15044;DHT22;7619;48.562;8.910;2022-10-24T15:05:12;17.30;1.00
15044;DHT22;7619;48.562;8.910;2022-10-24T15:07:41;17.20;18.30
15044;DHT22;7619;48.562;8.910;2022-10-24T15:10:24;17.00;1.00
15044;DHT22;7619;48.562;8.910;2022-10-24T15:13:01;16.90;99.90
15044;DHT22;7619;48.562;8.910;2022-10-24T15:15:32;16.70;99.90
15044;DHT22;7619;48.562;8.910;2022-10-24T15:18:08;16.60;1.00
15044;DHT22;7619;48.562;8.910;2022-10-24T15:20:39;16.50;99.90
15044;DHT22;7619;48.562;8.910;2022-10-24T15:26:01;16.40;1.00
15044;DHT22;7619;48.562;8.910;2022-10-24T15:31:11;16.50;99.90
15044;DHT22;7619;48.562;8.910;2022-10-24T15:33:41;16.30;1.00
15044;DHT22;7619;48.562;8.910;2022-10-24T15:36:16;16.20;99.90
15044;DHT22;7619;48.562;8.910;2022-10-24T15:38:45;16.00;1.00
15044;DHT22;7619;48.562;8.910;2022-10-24T15:41:15;15.90;99.90
15044;DHT22;7619;48.562;8.910;2022-10-24T15:46:20;15.70;1.00
15044;DHT22;7619;48.562;8.910;2022-10-24T15:48:49;15.70;1.00
15044;DHT22;7619;48.562;8.910;2022-10-24T15:51:21;15.60;99.90
15044;DHT22;7619;48.562;8.910;2022-10-24T15:53:50;15.50;1.00
15044;DHT22;7619;48.562;8.910;2022-10-24T15:56:20;15.50;1.00
15044;DHT22;7619;48.562;8.910;2022-10-24T15:58:50;15.40;99.90
15044;DHT22;7619;48.562;8.910;2022-10-24T16:01:26;15.40;1.00
15044;DHT22;7619;48.562;8.910;2022-10-24T16:03:55;15.30;99.90
15044;DHT22;7619;48.562;8.910;2022-10-24T16:06:24;15.20;99.90
15044;DHT22;7619;48.562;8.910;2022-10-24T16:08:54;15.10;99.90
15044;DHT22;7619;48.562;8.910;2022-10-24T16:11:23;15.10;99.90
15044;DHT22;7619;48.562;8.910;2022-10-24T16:13:52;15.00;99.90
15044;DHT22;7619;48.562;8.910;2022-10-24T16:16:22;15.00;99.90
15044;DHT22;7619;48.562;8.910;2022-10-24T16:18:52;15.00;99.90
15044;DHT22;7619;48.562;8.910;2022-10-24T16:21:21;14.90;99.90
15044;DHT22;7619;48.562;8.910;2022-10-24T16:23:50;14.80;99.90
15044;DHT22;7619;48.562;8.910;2022-10-24T16:26:19;14.80;99.90
15044;DHT22;7619;48.562;8.910;2022-10-24T16:28:48;14.80;99.90
15044;DHT22;7619;48.562;8.910;2022-10-24T16:33:54;14.60;99.90
15044;DHT22;7619;48.562;8.910;2022-10-24T16:36:23;14.50;99.90
15044;DHT22;7619;48.562;8.910;2022-10-24T16:38:52;14.50;99.90
15044;DHT22;7619;48.562;8.910;2022-10-24T16:41:23;14.20;99.90
15044;DHT22;7619;48.562;8.910;2022-10-24T16:43:54;14.20;99.90
15044;DHT22;7619;48.562;8.910;2022-10-24T16:46:26;14.10;99.90
15044;DHT22;7619;48.562;8.910;2022-10-24T16:48:55;14.00;99.90
15044;DHT22;7619;48.562;8.910;2022-10-24T16:51:26;14.00;99.90
15044;DHT22;7619;48.562;8.910;2022-10-24T16:53:57;13.90;99.90
15044;DHT22;7619;48.562;8.910;2022-10-24T16:59:03;13.80;99.90
15044;DHT22;7619;48.562;8.910;2022-10-24T17:01:32;13.80;99.90
15044;DHT22;7619;48.562;8.910;2022-10-24T17:04:01;13.80;99.90
15044;DHT22;7619;48.562;8.910;2022-10-24T17:06:29;13.90;99.90
15044;DHT22;7619;48.562;8.910;2022-10-24T17:08:58;13.80;99.90
15044;DHT22;7619;48.562;8.910;2022-10-24T17:11:27;13.80;99.90
15044;DHT22;7619;48.562;8.910;2022-10-24T17:13:56;13.80;99.90
15044;DHT22;7619;48.562;8.910;2022-10-24T17:16:26;13.80;99.90
15044;DHT22;7619;48.562;8.910;2022-10-24T17:18:55;13.90;99.90
15044;DHT22;7619;48.562;8.910;2022-10-24T17:21:24;14.00;99.90
15044;DHT22;7619;48.562;8.910;2022-10-24T17:23:54;14.10;99.90
15044;DHT22;7619;48.562;8.910;2022-10-24T17:29:01;13.90;99.90
15044;DHT22;7619;48.562;8.910;2022-10-24T17:31:31;13.70;99.90
15044;DHT22;7619;48.562;8.910;2022-10-24T17:36:39;13.60;99.90
15044;DHT22;7619;48.562;8.910;2022-10-24T17:39:13;13.70;99.90
15044;DHT22;7619;48.562;8.910;2022-10-24T17:44:19;13.70;99.90
15044;DHT22;7619;48.562;8.910;2022-10-24T17:46:49;13.70;99.90
15044;DHT22;7619;48.562;8.910;2022-10-24T17:49:18;13.70;99.90
15044;DHT22;7619;48.562;8.910;2022-10-24T17:51:48;13.70;99.90
15044;DHT22;7619;48.562;8.910;2022-10-24T17:54:17;13.70;99.90
15044;DHT22;7619;48.562;8.910;2022-10-24T17:56:46;13.70;99.90
15044;DHT22;7619;48.562;8.910;2022-10-24T17:59:15;13.70;99.90
15044;DHT22;7619;48.562;8.910;2022-10-24T18:01:44;13.60;99.90
15044;DHT22;7619;48.562;8.910;2022-10-24T18:04:14;13.60;99.90
15044;DHT22;7619;48.562;8.910;2022-10-24T18:09:12;13.60;99.90
15044;DHT22;7619;48.562;8.910;2022-10-24T18:11:41;13.60;99.90
15044;DHT22;7619;48.562;8.910;2022-10-24T18:14:10;13.30;99.90
15044;DHT22;7619;48.562;8.910;2022-10-24T18:16:40;13.20;99.90
15044;DHT22;7619;48.562;8.910;2022-10-24T18:19:09;13.20;99.90